createdAt,value
2022-12-13T00:00:33.241Z,66.21
2022-12-13T00:02:59.731Z,66.08
2022-12-13T00:05:26.727Z,66.02
2022-12-13T00:07:53.359Z,66.10
2022-12-13T00:10:19.941Z,66.21
2022-12-13T00:12:46.448Z,65.78
2022-12-13T00:15:13.921Z,66.10
2022-12-13T00:17:41.321Z,65.71
2022-12-13T00:20:08.059Z,65.53
2022-12-13T00:22:34.876Z,64.96
2022-12-13T00:25:08.765Z,64.76
2022-12-13T00:27:35.339Z,64.77
2022-12-13T00:30:04.812Z,64.89
2022-12-13T00:32:34.174Z,64.70
2022-12-13T00:35:00.779Z,64.89
2022-12-13T00:37:27.698Z,65.01
2022-12-13T00:39:54.270Z,64.99
2022-12-13T00:42:23.546Z,65.21
2022-12-13T00:44:50.087Z,65.03
2022-12-13T00:47:18.981Z,65.26
2022-12-13T00:49:45.514Z,64.99
2022-12-13T00:52:15.031Z,65.18
2022-12-13T00:54:41.549Z,65.20
2022-12-13T00:57:10.341Z,64.79
2022-12-13T00:59:39.705Z,65.08
2022-12-13T01:02:06.233Z,64.50
2022-12-13T01:04:35.371Z,64.76
2022-12-13T01:07:02.075Z,64.70
2022-12-13T01:09:30.967Z,64.49
2022-12-13T01:12:00.440Z,65.26
2022-12-13T01:14:29.774Z,64.93
2022-12-13T01:16:56.579Z,64.45
2022-12-13T01:19:26.747Z,64.41
2022-12-13T01:22:00.933Z,65.45
2022-12-13T01:24:30.081Z,65.20
2022-12-13T01:26:58.909Z,65.49
2022-12-13T01:29:26.054Z,65.74
2022-12-13T01:31:53.182Z,65.99
2022-12-13T01:34:20.241Z,66.12
2022-12-13T01:36:47.117Z,66.34
2022-12-13T01:39:15.664Z,66.28
2022-12-13T01:41:47.176Z,67.16
2022-12-13T01:44:32.453Z,67.18
2022-12-13T01:46:59.067Z,67.14
2022-12-13T01:49:27.719Z,67.45
2022-12-13T01:51:55.273Z,67.97
2022-12-13T01:54:25.047Z,67.87
2022-12-13T01:57:01.117Z,68.36
2022-12-13T01:59:32.642Z,68.63
2022-12-13T02:02:00.619Z,68.55
2022-12-13T02:04:43.914Z,69.13
2022-12-13T02:07:12.144Z,69.16
2022-12-13T02:09:41.505Z,68.84
2022-12-13T02:12:10.523Z,69.27
2022-12-13T02:14:42.059Z,69.63
2022-12-13T02:17:28.559Z,69.55
2022-12-13T02:20:01.759Z,69.40
2022-12-13T02:22:42.291Z,69.27
2022-12-13T02:25:38.328Z,69.22
2022-12-13T02:28:30.369Z,69.40
2022-12-13T02:31:24.183Z,69.03
2022-12-13T02:33:50.716Z,69.19
2022-12-13T02:36:43.750Z,69.14
2022-12-13T02:39:30.258Z,68.71
2022-12-13T02:42:22.454Z,69.28
2022-12-13T02:45:20.240Z,69.24
2022-12-13T02:47:47.632Z,69.09
2022-12-13T02:50:16.463Z,69.10
2022-12-13T02:52:43.278Z,69.27
2022-12-13T02:55:12.393Z,69.33
2022-12-13T02:57:40.529Z,69.95
2022-12-13T03:00:07.369Z,69.72
2022-12-13T03:02:34.164Z,69.76
2022-12-13T03:05:20.811Z,69.74
2022-12-13T03:08:08.625Z,69.45
2022-12-13T03:10:49.818Z,69.31
2022-12-13T03:13:40.764Z,69.41
2022-12-13T03:16:15.348Z,69.58
2022-12-13T03:18:50.285Z,69.67
2022-12-13T03:21:21.905Z,69.82
2022-12-13T03:23:48.531Z,69.89
2022-12-13T03:26:21.369Z,69.91
2022-12-13T03:28:48.059Z,69.93
2022-12-13T03:31:17.372Z,70.57
2022-12-13T03:33:46.620Z,70.30
2022-12-13T03:36:16.383Z,70.37
2022-12-13T03:38:52.620Z,70.37
2022-12-13T03:41:24.079Z,69.95
2022-12-13T03:43:58.205Z,69.50
2022-12-13T03:46:29.846Z,69.59
2022-12-13T03:49:24.372Z,69.22
2022-12-13T03:51:55.699Z,69.49
2022-12-13T03:54:22.414Z,69.48
2022-12-13T03:56:49.238Z,69.38
2022-12-13T03:59:18.675Z,69.88
2022-12-13T04:01:45.266Z,69.70
2022-12-13T04:04:11.919Z,69.83
2022-12-13T04:06:38.540Z,69.43
2022-12-13T04:09:05.127Z,69.55
2022-12-13T04:11:50.340Z,69.54
2022-12-13T04:14:21.570Z,69.74
2022-12-13T04:16:49.072Z,69.56
2022-12-13T04:19:16.125Z,69.25
2022-12-13T04:21:50.064Z,69.40
2022-12-13T04:24:18.722Z,68.88
2022-12-13T04:26:50.347Z,68.49
2022-12-13T04:29:20.308Z,68.77
2022-12-13T04:31:49.330Z,69.15
2022-12-13T04:34:26.364Z,69.29
2022-12-13T04:37:05.935Z,69.57
2022-12-13T04:39:39.778Z,69.44
2022-12-13T04:42:17.828Z,69.51
2022-12-13T04:44:46.270Z,69.03
2022-12-13T04:47:15.816Z,68.89
2022-12-13T04:49:44.141Z,68.80
2022-12-13T04:52:10.790Z,68.81
2022-12-13T04:54:37.382Z,68.91
2022-12-13T04:57:05.373Z,68.41
2022-12-13T04:59:31.911Z,68.10
2022-12-13T05:02:00.827Z,68.12
2022-12-13T05:04:33.029Z,67.90
2022-12-13T05:07:04.679Z,68.11
2022-12-13T05:09:31.224Z,67.29
2022-12-13T05:12:01.195Z,67.25
2022-12-13T05:14:30.881Z,66.49
2022-12-13T05:17:00.318Z,66.50
2022-12-13T05:19:30.388Z,66.50
2022-12-13T05:21:58.141Z,66.23
2022-12-13T05:24:28.183Z,66.33
2022-12-13T05:26:54.801Z,65.78
2022-12-13T05:29:21.383Z,66.87
2022-12-13T05:31:48.127Z,66.95
2022-12-13T05:34:14.696Z,66.61
2022-12-13T05:36:43.715Z,66.35
2022-12-13T05:39:28.650Z,66.16
2022-12-13T05:41:56.408Z,66.23
2022-12-13T05:44:32.486Z,66.55
2022-12-13T05:46:59.438Z,66.98
2022-12-13T05:49:30.067Z,66.93
2022-12-13T05:51:56.626Z,67.05
2022-12-13T05:54:23.229Z,66.60
2022-12-13T05:56:52.376Z,66.96
2022-12-13T05:59:18.996Z,66.56
2022-12-13T06:01:45.552Z,66.95
2022-12-13T06:04:12.590Z,66.24
2022-12-13T06:06:49.314Z,66.00
2022-12-13T06:09:17.871Z,66.05
2022-12-13T06:11:45.332Z,65.92
2022-12-13T06:14:22.595Z,65.72
2022-12-13T06:16:50.569Z,65.81
2022-12-13T06:19:17.169Z,65.65
2022-12-13T06:21:46.301Z,65.33
2022-12-13T06:24:17.167Z,65.02
2022-12-13T06:26:45.073Z,65.50
2022-12-13T06:29:13.049Z,65.28
2022-12-13T06:32:02.162Z,65.17
2022-12-13T06:34:30.232Z,65.42
2022-12-13T06:36:57.225Z,64.96
2022-12-13T06:39:23.835Z,64.85
2022-12-13T06:41:50.345Z,64.69
2022-12-13T06:44:16.911Z,64.90
2022-12-13T06:46:43.484Z,64.63
2022-12-13T06:49:12.478Z,64.12
2022-12-13T06:51:38.985Z,64.26
2022-12-13T06:54:05.723Z,64.01
2022-12-13T06:56:37.150Z,64.30
2022-12-13T06:59:03.733Z,63.39
2022-12-13T07:01:37.336Z,63.02
2022-12-13T07:04:05.376Z,63.28
2022-12-13T07:06:54.488Z,63.14
2022-12-13T07:09:21.105Z,63.86
2022-12-13T07:11:52.025Z,63.85
2022-12-13T07:14:19.808Z,63.68
2022-12-13T07:16:46.384Z,63.68
2022-12-13T07:19:23.958Z,63.63
2022-12-13T07:21:55.523Z,62.93
2022-12-13T07:24:27.994Z,62.75
2022-12-13T07:26:54.597Z,62.38
2022-12-13T07:29:22.701Z,62.48
2022-12-13T07:31:49.746Z,62.01
2022-12-13T07:34:16.316Z,61.76
2022-12-13T07:36:42.981Z,61.38
2022-12-13T07:39:10.625Z,60.84
2022-12-13T07:41:37.795Z,61.09
2022-12-13T07:44:08.326Z,60.68
2022-12-13T07:46:36.103Z,60.38
2022-12-13T07:49:03.115Z,60.29
2022-12-13T07:51:29.796Z,60.51
2022-12-13T07:53:59.611Z,60.64
2022-12-13T07:56:26.184Z,60.86
2022-12-13T07:58:55.229Z,60.79
2022-12-13T08:01:21.942Z,60.01
2022-12-13T08:03:48.810Z,60.53
2022-12-13T08:06:15.724Z,60.11
2022-12-13T08:08:45.038Z,60.20
2022-12-13T08:11:15.606Z,60.02
2022-12-13T08:13:42.260Z,59.54
2022-12-13T08:16:26.176Z,59.88
2022-12-13T08:19:01.782Z,59.37
2022-12-13T08:21:54.999Z,58.79
2022-12-13T08:24:23.633Z,58.23
2022-12-13T08:26:50.185Z,58.41
2022-12-13T08:29:22.819Z,57.21
2022-12-13T08:32:01.561Z,57.24
2022-12-13T08:34:30.475Z,57.79
2022-12-13T08:37:01.583Z,56.83
2022-12-13T08:39:34.405Z,56.64
2022-12-13T08:42:14.792Z,56.22
2022-12-13T08:44:47.343Z,56.17
2022-12-13T08:47:24.024Z,55.91
2022-12-13T08:50:02.318Z,55.40
2022-12-13T08:52:30.375Z,55.12
2022-12-13T08:54:56.958Z,56.01
2022-12-13T08:57:23.557Z,55.46
2022-12-13T08:59:50.191Z,53.80
2022-12-13T09:02:17.102Z,54.94
2022-12-13T09:04:46.255Z,54.05
2022-12-13T09:07:12.917Z,53.85
2022-12-13T09:09:39.639Z,53.62
2022-12-13T09:12:10.724Z,53.84
2022-12-13T09:15:00.884Z,52.19
2022-12-13T09:17:27.673Z,52.63
2022-12-13T09:20:03.391Z,53.29
2022-12-13T09:22:37.445Z,52.05
2022-12-13T09:25:14.799Z,52.73
2022-12-13T09:27:42.373Z,51.75
2022-12-13T09:30:13.210Z,51.61
2022-12-13T09:32:41.349Z,50.45
2022-12-13T09:35:10.494Z,48.57
2022-12-13T09:37:42.585Z,49.70
2022-12-13T09:40:16.557Z,48.50
2022-12-13T09:43:08.320Z,49.21
2022-12-13T09:45:43.108Z,49.78
2022-12-13T09:48:22.172Z,49.19
2022-12-13T09:50:58.001Z,46.64
2022-12-13T09:53:39.614Z,48.49
2022-12-13T09:56:11.033Z,46.56
2022-12-13T09:58:38.211Z,46.94
2022-12-13T10:01:07.378Z,46.10
2022-12-13T10:03:36.084Z,46.58
2022-12-13T10:06:14.433Z,46.17
2022-12-13T10:08:50.703Z,45.92
2022-12-13T10:11:32.366Z,45.17
2022-12-13T10:14:02.471Z,46.09
2022-12-13T10:16:35.937Z,46.15
2022-12-13T10:19:29.168Z,46.53
2022-12-13T10:22:01.206Z,46.31
2022-12-13T10:24:36.712Z,45.28
2022-12-13T10:27:13.425Z,45.25
2022-12-13T10:29:58.764Z,44.62
2022-12-13T10:32:27.775Z,43.27
2022-12-13T10:34:57.277Z,43.71
2022-12-13T10:37:26.189Z,44.68
2022-12-13T10:39:52.768Z,44.59
2022-12-13T10:42:21.976Z,44.24
2022-12-13T10:44:54.743Z,43.62
2022-12-13T10:47:25.002Z,43.19
2022-12-13T10:49:59.499Z,42.83
2022-12-13T10:52:31.584Z,42.30
2022-12-13T10:55:23.056Z,41.93
2022-12-13T10:57:57.105Z,41.52
2022-12-13T11:00:58.526Z,41.50
2022-12-13T11:03:28.216Z,40.60
2022-12-13T11:06:13.088Z,39.26
2022-12-13T11:08:39.610Z,40.70
2022-12-13T11:11:06.747Z,40.65
2022-12-13T11:13:37.007Z,41.10
2022-12-13T11:16:04.447Z,40.09
2022-12-13T11:18:34.380Z,40.18
2022-12-13T11:21:04.606Z,39.28
2022-12-13T11:23:38.500Z,39.50
2022-12-13T11:26:09.279Z,38.77
2022-12-13T11:28:39.558Z,39.08
2022-12-13T11:31:18.516Z,37.81
2022-12-13T11:33:48.880Z,38.11
2022-12-13T11:36:18.676Z,36.39
2022-12-13T11:39:03.959Z,37.48
2022-12-13T11:41:38.821Z,34.82
2022-12-13T11:44:18.470Z,35.21
2022-12-13T11:46:45.535Z,36.95
2022-12-13T11:49:18.056Z,34.28
2022-12-13T11:51:47.240Z,34.64
2022-12-13T11:54:25.021Z,35.79
2022-12-13T11:57:00.539Z,35.36
2022-12-13T11:59:40.343Z,36.43
2022-12-13T12:02:21.644Z,36.11
2022-12-13T12:04:50.092Z,36.92
2022-12-13T12:07:35.207Z,38.20
2022-12-13T12:10:01.873Z,38.82
2022-12-13T12:12:37.791Z,37.73
2022-12-13T12:15:16.354Z,36.49
2022-12-13T12:17:43.706Z,35.75
2022-12-13T12:20:12.513Z,35.74
2022-12-13T12:23:05.614Z,37.34
2022-12-13T12:25:38.227Z,34.96
2022-12-13T12:28:27.851Z,36.31
2022-12-13T12:31:04.752Z,36.97
2022-12-13T12:33:52.531Z,35.91
2022-12-13T12:36:37.838Z,35.58
2022-12-13T12:39:19.999Z,35.98
2022-12-13T12:42:05.321Z,34.31
2022-12-13T12:44:34.931Z,34.60
2022-12-13T12:47:46.362Z,35.35
2022-12-13T12:49:51.132Z,35.19
2022-12-13T12:52:32.985Z,34.42
2022-12-13T12:55:11.950Z,33.50
2022-12-13T12:57:39.536Z,34.85
2022-12-13T13:00:12.080Z,35.27
2022-12-13T13:03:01.298Z,33.77
2022-12-13T13:05:41.707Z,35.35
2022-12-13T13:08:22.815Z,34.71
2022-12-13T13:10:50.392Z,34.44
2022-12-13T13:13:35.478Z,33.70
2022-12-13T13:16:02.671Z,33.99
2022-12-13T13:18:47.920Z,33.76
2022-12-13T13:21:23.561Z,33.60
2022-12-13T13:24:02.299Z,33.72
2022-12-13T13:26:34.258Z,33.09
2022-12-13T13:29:27.408Z,33.65
2022-12-13T13:32:05.158Z,33.28
2022-12-13T13:34:39.756Z,33.65
2022-12-13T13:37:30.100Z,32.55
2022-12-13T13:40:01.455Z,33.00
2022-12-13T13:42:31.085Z,30.23
2022-12-13T13:45:01.813Z,32.95
2022-12-13T13:47:39.087Z,31.49
2022-12-13T13:50:08.865Z,29.85
2022-12-13T13:52:44.672Z,31.91
2022-12-13T13:55:31.252Z,29.80
2022-12-13T13:58:09.452Z,31.33
2022-12-13T14:00:56.137Z,32.65
2022-12-13T14:03:34.525Z,32.78
2022-12-13T14:06:13.498Z,32.92
2022-12-13T14:08:58.783Z,33.02
2022-12-13T14:11:25.408Z,32.91
2022-12-13T14:14:21.858Z,33.90
2022-12-13T14:16:49.211Z,35.95
2022-12-13T14:19:21.784Z,36.30
2022-12-13T14:21:51.814Z,36.92
2022-12-13T14:24:30.962Z,37.24
2022-12-13T14:27:02.111Z,37.83
2022-12-13T14:29:34.077Z,37.88
2022-12-13T14:32:03.233Z,38.90
2022-12-13T14:34:30.499Z,38.78
2022-12-13T14:36:58.039Z,38.67
2022-12-13T14:39:29.467Z,39.06
2022-12-13T14:41:57.357Z,39.47
2022-12-13T14:44:31.635Z,39.85
2022-12-13T14:47:08.149Z,40.33
2022-12-13T14:49:35.758Z,40.45
2022-12-13T14:52:05.376Z,40.94
2022-12-13T14:54:40.097Z,41.42
2022-12-13T14:57:06.726Z,41.80
2022-12-13T14:59:33.868Z,41.99
2022-12-13T15:02:02.677Z,42.11
2022-12-13T15:04:32.804Z,42.13
2022-12-13T15:07:06.491Z,42.47
2022-12-13T15:09:39.778Z,42.61
2022-12-13T15:12:25.922Z,42.08
2022-12-13T15:15:00.085Z,42.45
2022-12-13T15:17:26.720Z,42.22
2022-12-13T15:19:54.780Z,43.20
2022-12-13T15:22:22.058Z,44.01
2022-12-13T15:24:56.682Z,43.89
2022-12-13T15:27:30.195Z,44.04
2022-12-13T15:29:56.808Z,44.11
2022-12-13T15:32:25.960Z,44.28
2022-12-13T15:34:52.706Z,44.02
2022-12-13T15:37:29.823Z,44.29
2022-12-13T15:40:17.182Z,44.45
2022-12-13T15:42:46.842Z,44.66
2022-12-13T15:45:29.228Z,45.16
2022-12-13T15:47:59.837Z,46.59
2022-12-13T15:50:49.045Z,47.18
2022-12-13T15:53:26.469Z,48.01
2022-12-13T15:55:55.431Z,48.80
2022-12-13T15:58:27.323Z,49.23
2022-12-13T16:00:54.069Z,49.63
2022-12-13T16:03:21.537Z,49.85
2022-12-13T16:05:49.744Z,49.83
2022-12-13T16:08:26.838Z,49.53
2022-12-13T16:10:53.515Z,49.80
2022-12-13T16:13:27.346Z,50.07
2022-12-13T16:16:00.352Z,50.65
2022-12-13T16:18:46.152Z,50.45
2022-12-13T16:21:15.075Z,50.61
2022-12-13T16:23:48.731Z,50.65
2022-12-13T16:26:16.086Z,50.48
2022-12-13T16:28:45.631Z,50.45
2022-12-13T16:31:19.822Z,50.31
2022-12-13T16:33:47.057Z,50.49
2022-12-13T16:36:13.712Z,50.36
2022-12-13T16:38:43.181Z,50.37
2022-12-13T16:41:12.073Z,50.33
2022-12-13T16:43:40.673Z,50.91
2022-12-13T16:47:11.690Z,51.55
2022-12-13T16:48:56.410Z,50.96
2022-12-13T16:51:25.237Z,51.55
2022-12-13T16:53:51.842Z,51.58
2022-12-13T16:56:21.822Z,51.75
2022-12-13T16:58:50.969Z,52.11
2022-12-13T17:01:20.822Z,52.26
2022-12-13T17:03:47.983Z,52.36
2022-12-13T17:06:14.905Z,52.27
2022-12-13T17:08:41.527Z,53.31
2022-12-13T17:11:13.302Z,53.36
2022-12-13T17:13:44.978Z,53.54
2022-12-13T17:16:14.218Z,53.40
2022-12-13T17:18:43.510Z,53.70
2022-12-13T17:21:12.394Z,53.65
2022-12-13T17:23:38.939Z,53.67
2022-12-13T17:26:10.807Z,54.01
2022-12-13T17:28:37.390Z,53.22
2022-12-13T17:31:08.116Z,53.13
2022-12-13T17:33:34.913Z,53.71
2022-12-13T17:36:03.384Z,53.04
2022-12-13T17:38:29.997Z,53.83
2022-12-13T17:41:00.757Z,54.20
2022-12-13T17:43:34.329Z,53.79
2022-12-13T17:46:04.467Z,54.84
2022-12-13T17:48:40.473Z,54.70
2022-12-13T17:52:37.684Z,54.16
2022-12-13T17:54:41.137Z,54.58
2022-12-13T17:57:10.561Z,54.98
2022-12-13T17:59:43.041Z,54.73
2022-12-13T18:02:11.421Z,54.94
2022-12-13T18:04:40.772Z,54.54
2022-12-13T18:07:07.845Z,54.82
2022-12-13T18:09:34.378Z,54.29
2022-12-13T18:12:00.910Z,54.24
2022-12-13T18:14:29.254Z,54.28
2022-12-13T18:17:01.243Z,54.15
2022-12-13T18:19:31.890Z,54.02
2022-12-13T18:21:58.997Z,54.06
2022-12-13T18:24:28.483Z,53.89
2022-12-13T18:26:57.815Z,53.69
2022-12-13T18:29:24.425Z,53.58
2022-12-13T18:31:51.331Z,53.53
2022-12-13T18:34:17.970Z,53.67
2022-12-13T18:36:45.049Z,53.76
2022-12-13T18:39:13.854Z,53.64
2022-12-13T18:41:43.833Z,53.61
2022-12-13T18:44:10.459Z,53.71
2022-12-13T18:46:43.461Z,54.24
2022-12-13T18:49:30.388Z,54.06
2022-12-13T18:52:00.656Z,53.83
2022-12-13T18:54:30.463Z,53.88
2022-12-13T18:56:59.650Z,54.39
2022-12-13T18:59:28.615Z,55.39
2022-12-13T19:01:55.302Z,54.96
2022-12-13T19:04:25.169Z,54.46
2022-12-13T19:06:54.304Z,54.05
2022-12-13T19:09:20.982Z,54.58
2022-12-13T19:11:49.898Z,55.46
2022-12-13T19:14:23.748Z,55.20
2022-12-13T19:16:53.510Z,55.24
2022-12-13T19:19:20.317Z,55.06
2022-12-13T19:21:47.026Z,54.56
2022-12-13T19:24:13.869Z,54.86
2022-12-13T19:26:43.036Z,55.02
2022-12-13T19:29:12.184Z,53.83
2022-12-13T19:31:41.249Z,54.37
2022-12-13T19:34:07.826Z,55.19
2022-12-13T19:36:34.428Z,54.45
2022-12-13T19:39:01.030Z,54.03
2022-12-13T19:41:27.980Z,54.24
2022-12-13T19:43:54.615Z,54.48
2022-12-13T19:46:21.340Z,55.17
2022-12-13T19:48:47.966Z,55.23
2022-12-13T19:51:19.492Z,54.86
2022-12-13T19:53:46.161Z,54.87
2022-12-13T19:56:15.155Z,55.20
2022-12-13T19:58:41.731Z,55.33
2022-12-13T20:01:08.410Z,55.54
2022-12-13T20:03:35.570Z,55.89
2022-12-13T20:06:10.818Z,55.65
2022-12-13T20:08:37.359Z,55.84
2022-12-13T20:11:05.604Z,56.11
2022-12-13T20:13:34.645Z,55.08
2022-12-13T20:16:01.910Z,55.52
2022-12-13T20:18:30.904Z,55.42
2022-12-13T20:21:15.819Z,56.21
2022-12-13T20:23:49.282Z,56.74
2022-12-13T20:26:17.393Z,56.11
2022-12-13T20:28:46.409Z,55.70
2022-12-13T20:31:19.892Z,54.91
2022-12-13T20:33:48.633Z,55.14
2022-12-13T20:36:26.678Z,55.00
2022-12-13T20:39:03.246Z,55.48
2022-12-13T20:41:46.093Z,55.57
2022-12-13T20:44:21.021Z,55.75
2022-12-13T20:46:50.547Z,55.77
2022-12-13T20:49:17.108Z,56.01
2022-12-13T20:51:43.766Z,56.16
2022-12-13T20:54:10.541Z,56.02
2022-12-13T20:56:41.909Z,55.97
2022-12-13T20:59:10.685Z,56.48
2022-12-13T21:01:40.540Z,56.29
2022-12-13T21:04:07.934Z,56.24
2022-12-13T21:06:40.958Z,56.44
2022-12-13T21:09:11.385Z,56.27
2022-12-13T21:11:42.295Z,56.21
2022-12-13T21:14:21.913Z,56.41
2022-12-13T21:16:53.507Z,56.30
2022-12-13T21:19:24.163Z,56.65
2022-12-13T21:21:51.009Z,56.88
2022-12-13T21:24:20.514Z,57.70
2022-12-13T21:26:52.107Z,57.65
2022-12-13T21:29:18.781Z,57.90
2022-12-13T21:31:49.146Z,57.38
2022-12-13T21:34:16.347Z,57.74
2022-12-13T21:36:43.907Z,57.41
2022-12-13T21:39:12.599Z,57.18
2022-12-13T21:41:41.522Z,57.50
2022-12-13T21:44:09.903Z,57.46
2022-12-13T21:47:10.881Z,57.86
2022-12-13T21:49:30.883Z,57.61
2022-12-13T21:51:57.431Z,57.41
2022-12-13T21:54:24.408Z,58.73
2022-12-13T21:57:09.535Z,58.82
2022-12-13T21:59:36.083Z,58.38
2022-12-13T22:02:13.207Z,58.93
2022-12-13T22:04:39.978Z,58.47
2022-12-13T22:07:07.131Z,58.90
2022-12-13T22:09:34.381Z,58.86
2022-12-13T22:12:01.413Z,58.67
2022-12-13T22:14:30.082Z,58.76
2022-12-13T22:16:56.770Z,58.50
2022-12-13T22:19:25.716Z,58.69
2022-12-13T22:21:52.333Z,58.45
2022-12-13T22:24:19.320Z,58.80
2022-12-13T22:26:48.343Z,58.99
2022-12-13T22:29:15.354Z,58.86
2022-12-13T22:31:42.023Z,58.94
2022-12-13T22:34:11.161Z,58.48
2022-12-13T22:36:40.636Z,58.72
2022-12-13T22:39:14.145Z,58.51
2022-12-13T22:41:40.714Z,59.05
2022-12-13T22:44:13.227Z,58.98
2022-12-13T22:46:39.930Z,59.05
2022-12-13T22:49:08.808Z,59.64
2022-12-13T22:51:38.314Z,59.33
2022-12-13T22:54:04.993Z,59.46
2022-12-13T22:56:32.052Z,59.35
2022-12-13T22:59:01.951Z,61.02
2022-12-13T23:01:29.599Z,60.43
2022-12-13T23:03:58.977Z,60.58
2022-12-13T23:06:29.205Z,60.49
2022-12-13T23:08:56.922Z,60.57
2022-12-13T23:11:45.161Z,60.96
2022-12-13T23:14:15.049Z,61.07
2022-12-13T23:16:41.759Z,60.79
2022-12-13T23:19:40.499Z,60.65
2022-12-13T23:21:57.930Z,60.76
2022-12-13T23:24:24.568Z,60.46
2022-12-13T23:26:51.091Z,60.23
2022-12-13T23:29:22.512Z,60.02
2022-12-13T23:31:49.246Z,60.19
2022-12-13T23:34:15.924Z,59.69
2022-12-13T23:36:44.934Z,59.92
2022-12-13T23:39:14.302Z,60.13
2022-12-13T23:41:44.010Z,60.35
2022-12-13T23:44:10.700Z,60.32
2022-12-13T23:46:37.259Z,59.72
2022-12-13T23:49:05.360Z,59.81
2022-12-13T23:51:35.063Z,60.05
2022-12-13T23:54:01.622Z,59.91
2022-12-13T23:56:29.155Z,59.76
2022-12-13T23:58:58.059Z,60.00
